Time;durP1;ratioP1;P1;durP2;ratioP2;P2;SDS_P1;SDS_P2;PMS_P1;PMS_P2;Temp;Humidity;BMP_temperature;BMP_pressure;BME280_temperature;BME280_humidity;BME280_pressure;Samples;Min_cycle;Max_cycle;Signal;HPM_P1;HPM_P2
2023/07/13 00:02:23;;;;;;;9.52;2.80;;;17.40;99.90;;;;;;4973208;28;20441;-63
2023/07/13 00:04:50;;;;;;;9.00;2.93;;;17.40;99.90;;;;;;5006695;28;20418;-65
2023/07/13 00:07:19;;;;;;;12.65;2.67;;;17.40;99.90;;;;;;4990523;28;20484;-65
2023/07/13 00:09:46;;;;;;;12.30;3.55;;;17.30;99.90;;;;;;5006887;28;20390;-65
2023/07/13 00:12:30;;;;;;;13.35;2.85;;;17.30;99.90;;;;;;5007133;28;20426;-65
2023/07/13 00:15:01;;;;;;;10.40;2.80;;;17.80;99.90;;;;;;5012437;28;20435;-65
2023/07/13 00:17:28;;;;;;;12.10;2.90;;;17.30;99.90;;;;;;5004330;28;20511;-64
2023/07/13 00:19:55;;;;;;;10.85;2.80;;;17.30;99.90;;;;;;5006951;28;20416;-64
2023/07/13 00:22:21;;;;;;;9.17;2.93;;;17.30;99.90;;;;;;5007268;28;20401;-62
2023/07/13 00:24:47;;;;;;;11.48;2.85;;;17.30;99.90;;;;;;4998294;28;20420;-64
2023/07/13 00:27:14;;;;;;;11.85;2.95;;;17.30;99.90;;;;;;4996418;28;20409;-64
2023/07/13 00:29:39;;;;;;;10.43;2.97;;;17.00;99.90;;;;;;4994418;28;20409;-65
2023/07/13 00:32:07;;;;;;;10.73;3.07;;;17.20;99.90;;;;;;5005848;28;20447;-65
2023/07/13 00:34:33;;;;;;;8.32;2.80;;;17.20;99.90;;;;;;5006342;28;20496;-65
2023/07/13 00:36:58;;;;;;;10.98;2.80;;;17.20;99.90;;;;;;5006644;28;20845;-64
2023/07/13 00:39:24;;;;;;;10.50;3.20;;;17.20;99.90;;;;;;5006618;28;20396;-65
2023/07/13 00:41:50;;;;;;;9.65;2.83;;;17.30;99.90;;;;;;5006589;28;20454;-65
2023/07/13 00:44:20;;;;;;;10.85;2.78;;;17.20;99.90;;;;;;5005781;28;20460;-63
2023/07/13 00:46:46;;;;;;;10.85;3.28;;;17.20;99.90;;;;;;5005574;28;20832;-64
2023/07/13 00:49:16;;;;;;;11.13;2.90;;;17.10;99.90;;;;;;5006557;28;20397;-64
2023/07/13 00:51:58;;;;;;;10.52;3.08;;;17.20;99.90;;;;;;4988822;28;20795;-65
2023/07/13 00:54:30;;;;;;;10.35;2.92;;;17.10;99.90;;;;;;5003510;28;20425;-64
2023/07/13 00:56:59;;;;;;;10.50;3.05;;;17.10;99.90;;;;;;4992921;28;20432;-63
2023/07/13 00:59:26;;;;;;;11.15;3.10;;;17.10;99.90;;;;;;5009589;28;20764;-66
2023/07/13 01:01:52;;;;;;;9.50;3.05;;;17.10;99.90;;;;;;5005629;28;20470;-66
2023/07/13 01:04:18;;;;;;;8.90;2.70;;;17.10;99.90;;;;;;4999437;28;20437;-65
2023/07/13 01:06:46;;;;;;;9.07;3.05;;;17.10;99.90;;;;;;5005740;28;20405;-62
2023/07/13 01:09:12;;;;;;;9.50;2.95;;;17.10;99.90;;;;;;5006624;28;20465;-65
2023/07/13 01:11:39;;;;;;;10.27;2.80;;;17.10;99.90;;;;;;5005962;28;20836;-64
2023/07/13 01:14:04;;;;;;;11.05;3.08;;;17.10;99.90;;;;;;5005311;28;20424;-63
2023/07/13 01:16:32;;;;;;;9.88;3.10;;;17.10;99.90;;;;;;4988429;28;20496;-65
2023/07/13 01:19:00;;;;;;;10.18;3.03;;;17.00;99.90;;;;;;5005941;28;20491;-64
2023/07/13 01:21:28;;;;;;;11.20;3.05;;;17.00;99.90;;;;;;5007971;28;20401;-66
2023/07/13 01:23:54;;;;;;;9.50;3.00;;;17.10;99.90;;;;;;5005255;28;20485;-65
2023/07/13 01:26:20;;;;;;;9.98;3.22;;;17.10;99.90;;;;;;5008499;28;20413;-65
2023/07/13 01:28:45;;;;;;;11.35;3.10;;;17.10;99.90;;;;;;4991971;28;20401;-63
2023/07/13 01:31:11;;;;;;;10.70;3.05;;;17.10;99.90;;;;;;5009802;28;20405;-64
2023/07/13 01:33:39;;;;;;;13.38;3.33;;;17.10;99.90;;;;;;4991683;28;20412;-64
2023/07/13 01:36:07;;;;;;;11.13;3.42;;;17.10;99.90;;;;;;5008988;28;20404;-66
2023/07/13 01:38:33;;;;;;;13.15;3.15;;;17.10;99.90;;;;;;5009389;28;20980;-65
2023/07/13 01:40:59;;;;;;;11.07;3.45;;;17.10;99.90;;;;;;5013463;28;20420;-65
2023/07/13 01:43:25;;;;;;;10.10;3.08;;;17.10;99.90;;;;;;5033190;28;20551;-65
2023/07/13 01:45:51;;;;;;;13.02;3.40;;;17.10;99.90;;;;;;5009367;28;20815;-65
2023/07/13 01:48:16;;;;;;;10.03;3.30;;;17.10;99.90;;;;;;5015012;28;20401;-65
2023/07/13 01:50:42;;;;;;;9.93;3.27;;;17.00;99.90;;;;;;5008017;28;20413;-65
2023/07/13 01:53:09;;;;;;;9.03;3.17;;;17.00;99.90;;;;;;4987925;28;20413;-65
2023/07/13 01:55:35;;;;;;;10.50;3.40;;;17.00;99.90;;;;;;5004364;28;20783;-65
2023/07/13 01:58:01;;;;;;;14.57;3.57;;;17.00;99.90;;;;;;4992031;28;20558;-65
2023/07/13 02:00:27;;;;;;;11.95;3.33;;;16.90;99.90;;;;;;4990753;28;20456;-65
2023/07/13 02:02:52;;;;;;;11.77;3.30;;;16.90;99.90;;;;;;5008886;28;20532;-65
2023/07/13 02:05:18;;;;;;;9.00;2.90;;;16.90;99.90;;;;;;5008501;28;20841;-64
2023/07/13 02:07:44;;;;;;;11.65;3.10;;;16.90;99.90;;;;;;4990672;28;20926;-63
2023/07/13 02:10:11;;;;;;;12.70;3.57;;;16.80;99.90;;;;;;5008704;28;20408;-65
2023/07/13 02:12:37;;;;;;;11.18;3.08;;;16.80;99.90;;;;;;5007889;28;20413;-65
2023/07/13 02:15:03;;;;;;;11.63;3.00;;;16.80;99.90;;;;;;5007781;28;20454;-64
2023/07/13 02:17:29;;;;;;;9.60;3.13;;;16.70;99.90;;;;;;5009022;28;20404;-65
2023/07/13 02:19:55;;;;;;;11.60;3.37;;;16.70;99.90;;;;;;4991368;28;20405;-65
2023/07/13 02:22:21;;;;;;;13.73;3.30;;;16.70;99.90;;;;;;5007536;28;20401;-64
2023/07/13 02:24:48;;;;;;;10.50;3.20;;;16.70;99.90;;;;;;4990845;28;20962;-65
2023/07/13 02:27:13;;;;;;;12.75;3.92;;;16.70;99.90;;;;;;5009030;28;20413;-65
2023/07/13 02:29:39;;;;;;;13.47;3.13;;;16.60;99.90;;;;;;4990514;28;20486;-65
2023/07/13 02:32:05;;;;;;;10.43;3.33;;;16.60;99.90;;;;;;4989908;28;20494;-62
2023/07/13 02:34:31;;;;;;;12.80;3.20;;;16.60;99.90;;;;;;5008184;28;20508;-64
2023/07/13 02:36:57;;;;;;;12.63;3.70;;;16.60;99.90;;;;;;4990830;28;20500;-63
2023/07/13 02:39:22;;;;;;;13.53;3.43;;;16.60;99.90;;;;;;5014805;28;20405;-65
2023/07/13 02:41:48;;;;;;;12.47;3.60;;;16.60;99.90;;;;;;5024078;28;20417;-62
2023/07/13 02:44:15;;;;;;;11.60;3.60;;;16.50;99.90;;;;;;5007602;28;20786;-65
2023/07/13 02:46:40;;;;;;;10.13;3.47;;;16.50;99.90;;;;;;5003716;28;20980;-65
2023/07/13 02:49:06;;;;;;;16.60;3.75;;;16.50;99.90;;;;;;5008060;28;20397;-66
2023/07/13 02:51:33;;;;;;;13.63;3.67;;;16.50;99.90;;;;;;5007945;28;20432;-65
2023/07/13 02:54:00;;;;;;;14.02;3.83;;;16.50;99.90;;;;;;5007413;28;20417;-63
2023/07/13 02:56:27;;;;;;;12.95;3.70;;;16.50;99.90;;;;;;5007952;28;20406;-66
2023/07/13 02:58:54;;;;;;;13.05;3.85;;;16.40;99.90;;;;;;5008428;28;20404;-62
2023/07/13 03:01:21;;;;;;;13.27;3.53;;;16.50;99.90;;;;;;4989390;28;20421;-65
2023/07/13 03:03:48;;;;;;;13.77;4.00;;;16.40;99.90;;;;;;5007246;28;20501;-65
2023/07/13 03:06:14;;;;;;;12.93;3.67;;;16.40;99.90;;;;;;4980441;28;20405;-64
2023/07/13 03:08:41;;;;;;;13.55;3.83;;;16.40;99.90;;;;;;5008195;28;20401;-65
2023/07/13 03:11:13;;;;;;;12.30;4.25;;;16.40;99.90;;;;;;5008107;28;20423;-65
2023/07/13 03:13:40;;;;;;;13.80;3.50;;;16.40;99.90;;;;;;5018906;28;20774;-65
2023/07/13 03:16:07;;;;;;;14.00;3.75;;;16.40;99.90;;;;;;4990146;28;20409;-63
2023/07/13 03:18:33;;;;;;;13.07;3.90;;;16.40;99.90;;;;;;5006660;28;20478;-65
2023/07/13 03:20:59;;;;;;;14.43;4.38;;;16.40;99.90;;;;;;5007350;28;20404;-65
2023/07/13 03:23:25;;;;;;;15.20;4.03;;;16.40;99.90;;;;;;5006554;28;20995;-65
2023/07/13 03:26:02;;;;;;;14.95;4.00;;;16.40;99.90;;;;;;5007581;28;20405;-65
2023/07/13 03:28:28;;;;;;;10.85;3.55;;;16.30;99.90;;;;;;5000859;28;20393;-65
2023/07/13 03:31:09;;;;;;;14.83;4.10;;;16.30;99.90;;;;;;5007475;28;20473;-65
2023/07/13 03:33:34;;;;;;;13.18;3.50;;;16.30;99.90;;;;;;5000389;28;20408;-64
2023/07/13 03:36:00;;;;;;;12.73;3.60;;;16.40;99.90;;;;;;5006710;28;20786;-63
2023/07/13 03:38:26;;;;;;;12.23;3.90;;;16.40;99.90;;;;;;4996642;28;20908;-65
2023/07/13 03:40:52;;;;;;;12.82;3.58;;;16.40;99.90;;;;;;5007165;28;20401;-65
2023/07/13 03:43:20;;;;;;;13.40;4.10;;;16.40;99.90;;;;;;5006164;28;20440;-65
2023/07/13 03:45:46;;;;;;;11.43;3.78;;;16.40;99.90;;;;;;5007623;28;20785;-65
2023/07/13 03:48:11;;;;;;;12.75;3.83;;;16.40;99.90;;;;;;4989767;28;20536;-65
2023/07/13 03:50:38;;;;;;;15.73;3.95;;;16.40;99.90;;;;;;5004531;28;20525;-64
2023/07/13 03:53:04;;;;;;;14.43;3.83;;;16.40;99.90;;;;;;5007113;28;20515;-65
2023/07/13 03:55:30;;;;;;;12.60;3.88;;;16.40;99.90;;;;;;5006385;28;20412;-64
2023/07/13 03:58:26;;;;;;;11.35;3.70;;;16.40;99.90;;;;;;4989179;28;20425;-65
2023/07/13 04:00:52;;;;;;;11.20;3.53;;;16.40;99.90;;;;;;5082521;28;20614;-65
2023/07/13 04:03:17;;;;;;;13.20;3.90;;;16.30;99.90;;;;;;5003612;28;20421;-64
2023/07/13 04:05:43;;;;;;;13.60;3.80;;;16.30;99.90;;;;;;5006666;28;20846;-64
2023/07/13 04:08:09;;;;;;;12.48;3.60;;;16.30;99.90;;;;;;5007125;28;20404;-64
2023/07/13 04:10:34;;;;;;;15.30;4.40;;;16.30;99.90;;;;;;4992525;28;20763;-64
2023/07/13 04:13:00;;;;;;;13.63;3.73;;;16.30;99.90;;;;;;5010918;28;20421;-64
2023/07/13 04:15:29;;;;;;;11.43;3.90;;;16.30;99.90;;;;;;5006602;28;20417;-64
2023/07/13 04:17:54;;;;;;;11.25;3.72;;;16.20;99.90;;;;;;5074539;28;20412;-64
2023/07/13 04:20:21;;;;;;;11.30;4.07;;;16.20;99.90;;;;;;4993496;28;20428;-64
2023/07/13 04:22:47;;;;;;;11.27;3.75;;;16.30;99.90;;;;;;5006793;28;20433;-64
2023/07/13 04:25:12;;;;;;;11.33;3.83;;;16.20;99.90;;;;;;5005899;28;20405;-64
2023/07/13 04:27:39;;;;;;;13.40;4.00;;;16.20;99.90;;;;;;5007002;28;20397;-64
2023/07/13 04:30:06;;;;;;;12.50;3.83;;;16.20;99.90;;;;;;5000345;28;20495;-64
2023/07/13 04:32:32;;;;;;;10.88;4.10;;;16.20;99.90;;;;;;5008736;28;20458;-64
2023/07/13 04:34:59;;;;;;;11.55;3.65;;;16.20;99.90;;;;;;5006361;28;20409;-64
2023/07/13 04:37:25;;;;;;;14.65;4.35;;;16.20;99.90;;;;;;5007939;28;20404;-64
2023/07/13 04:39:51;;;;;;;11.87;3.77;;;16.30;99.90;;;;;;5006548;28;20477;-64
2023/07/13 04:42:16;;;;;;;12.43;3.83;;;16.20;99.90;;;;;;4988688;28;20451;-64
2023/07/13 04:44:42;;;;;;;12.93;3.80;;;16.20;99.90;;;;;;5006140;28;20542;-64
2023/07/13 04:47:07;;;;;;;11.20;3.60;;;16.20;99.90;;;;;;5005982;28;20894;-64
2023/07/13 04:49:33;;;;;;;12.00;4.20;;;16.20;99.90;;;;;;4987901;28;20417;-64
2023/07/13 04:51:58;;;;;;;13.50;3.80;;;16.20;99.90;;;;;;5005358;28;20428;-64
2023/07/13 04:54:24;;;;;;;12.17;4.30;;;16.20;99.90;;;;;;5005153;28;20887;-64
2023/07/13 04:56:50;;;;;;;12.60;4.25;;;16.20;99.90;;;;;;4971745;28;20421;-64
2023/07/13 04:59:15;;;;;;;16.15;4.60;;;16.30;99.90;;;;;;5005222;28;20436;-64
2023/07/13 05:01:41;;;;;;;13.25;4.15;;;16.20;99.90;;;;;;5006095;28;20405;-64
2023/07/13 05:04:07;;;;;;;12.40;4.07;;;16.20;99.90;;;;;;4986437;28;20589;-64
2023/07/13 05:06:32;;;;;;;14.93;4.20;;;16.30;99.90;;;;;;4980481;28;20511;-64
2023/07/13 05:08:58;;;;;;;15.80;4.50;;;16.30;99.90;;;;;;5005709;28;20527;-65
2023/07/13 05:11:24;;;;;;;11.23;3.83;;;16.30;99.90;;;;;;5006204;28;20408;-64
2023/07/13 05:13:49;;;;;;;13.63;4.28;;;16.40;99.90;;;;;;5073576;28;20405;-65
2023/07/13 05:16:15;;;;;;;11.82;4.18;;;16.40;99.90;;;;;;5005454;28;20500;-65
2023/07/13 05:18:41;;;;;;;15.07;3.90;;;16.40;99.90;;;;;;5010875;28;20951;-65
2023/07/13 05:21:09;;;;;;;11.70;3.97;;;16.40;99.90;;;;;;5006010;28;20447;-65
2023/07/13 05:23:36;;;;;;;10.98;4.40;;;16.40;99.90;;;;;;4971903;28;20444;-65
2023/07/13 05:26:02;;;;;;;16.00;4.10;;;16.40;99.90;;;;;;5005918;28;20894;-65
2023/07/13 05:28:30;;;;;;;12.55;4.00;;;16.40;99.90;;;;;;4988625;28;20469;-65
2023/07/13 05:30:55;;;;;;;15.25;4.38;;;16.50;99.90;;;;;;5006262;28;20779;-65
2023/07/13 05:33:21;;;;;;;13.02;4.22;;;16.50;99.90;;;;;;4988063;28;20425;-65
2023/07/13 05:35:47;;;;;;;13.70;4.15;;;16.50;99.90;;;;;;5005621;28;20405;-64
2023/07/13 05:38:13;;;;;;;12.67;4.10;;;16.50;99.90;;;;;;5001305;28;20926;-65
2023/07/13 05:40:38;;;;;;;14.07;4.03;;;16.50;99.90;;;;;;5005879;28;20433;-65
2023/07/13 05:43:04;;;;;;;13.57;4.65;;;16.60;99.90;;;;;;5012711;28;20801;-65
2023/07/13 05:45:30;;;;;;;14.75;4.38;;;16.60;99.90;;;;;;5005733;28;20460;-65
2023/07/13 05:47:56;;;;;;;14.35;4.32;;;16.60;99.90;;;;;;5005685;28;20450;-65
2023/07/13 05:50:21;;;;;;;14.10;4.88;;;16.60;99.90;;;;;;5004032;28;20643;-65
2023/07/13 05:52:47;;;;;;;13.38;4.50;;;16.70;99.90;;;;;;5002313;28;20922;-65
2023/07/13 05:55:13;;;;;;;12.90;4.70;;;16.70;99.90;;;;;;5005035;28;20432;-65
2023/07/13 05:57:38;;;;;;;14.17;4.70;;;16.70;99.90;;;;;;4988238;28;20413;-65
2023/07/13 06:00:05;;;;;;;12.17;4.13;;;16.80;99.90;;;;;;5013511;28;20428;-65
2023/07/13 06:02:30;;;;;;;13.68;3.90;;;16.80;99.90;;;;;;5007240;28;20405;-65
2023/07/13 06:04:56;;;;;;;15.40;4.40;;;16.90;99.90;;;;;;5005306;28;20967;-64
2023/07/13 06:07:22;;;;;;;12.47;4.13;;;16.90;99.90;;;;;;5005285;28;20425;-65
2023/07/13 06:09:47;;;;;;;14.75;4.40;;;17.00;99.90;;;;;;5009306;28;20405;-64
2023/07/13 06:12:13;;;;;;;11.63;4.10;;;17.00;99.90;;;;;;5008965;28;20891;-65
2023/07/13 06:14:38;;;;;;;10.63;3.88;;;17.10;99.90;;;;;;4990811;28;20417;-65
2023/07/13 06:17:04;;;;;;;13.10;4.20;;;17.20;99.90;;;;;;4990826;28;20424;-65
2023/07/13 06:19:30;;;;;;;13.43;4.18;;;17.20;99.90;;;;;;5008750;28;20412;-65
2023/07/13 06:21:56;;;;;;;11.73;4.22;;;17.20;99.90;;;;;;5007277;28;20420;-65
2023/07/13 06:24:22;;;;;;;15.07;4.23;;;17.30;99.90;;;;;;4990325;28;20433;-65
2023/07/13 06:26:47;;;;;;;10.13;3.70;;;17.40;99.90;;;;;;5008542;28;20434;-64
2023/07/13 06:29:13;;;;;;;12.57;3.90;;;17.40;99.90;;;;;;4999291;28;20930;-67
2023/07/13 06:31:38;;;;;;;13.80;4.00;;;17.60;99.90;;;;;;5008503;28;20496;-63
2023/07/13 06:34:04;;;;;;;13.13;3.88;;;17.70;99.90;;;;;;5007660;28;20405;-63
2023/07/13 06:36:30;;;;;;;12.82;3.70;;;17.80;99.90;;;;;;5007412;28;20420;-64
2023/07/13 06:38:55;;;;;;;12.93;3.90;;;18.00;99.90;;;;;;4996622;28;20931;-67
2023/07/13 06:41:22;;;;;;;9.47;3.47;;;18.00;99.90;;;;;;5008311;28;20782;-62
2023/07/13 06:43:47;;;;;;;13.18;4.05;;;18.10;99.90;;;;;;4992000;28;20946;-67
2023/07/13 06:46:13;;;;;;;11.40;3.47;;;18.10;99.90;;;;;;5008016;28;20416;-62
2023/07/13 06:48:39;;;;;;;11.30;4.00;;;18.20;99.90;;;;;;5008340;28;20456;-63
2023/07/13 06:51:04;;;;;;;10.03;3.70;;;18.20;99.90;;;;;;5007594;28;20918;-62
2023/07/13 06:53:30;;;;;;;13.48;4.10;;;18.20;99.90;;;;;;5002863;28;20445;-62
2023/07/13 06:55:56;;;;;;;11.13;3.67;;;18.30;99.90;;;;;;5000202;28;20505;-64
2023/07/13 06:58:22;;;;;;;10.43;3.72;;;18.30;99.90;;;;;;4993734;28;20428;-62
2023/07/13 07:00:51;;;;;;;15.55;4.10;;;18.40;99.90;;;;;;5083717;28;20413;-67
2023/07/13 07:03:19;;;;;;;11.47;3.90;;;18.30;99.90;;;;;;5012475;28;21363;-66
2023/07/13 07:05:45;;;;;;;12.97;3.80;;;18.30;99.90;;;;;;5026536;28;20409;-63
2023/07/13 07:08:11;;;;;;;13.63;4.15;;;18.40;99.90;;;;;;5007668;28;20402;-63
2023/07/13 07:10:37;;;;;;;13.52;4.10;;;18.30;99.90;;;;;;4991127;28;20478;-63
2023/07/13 07:13:03;;;;;;;14.38;4.20;;;18.40;99.90;;;;;;5007229;28;20508;-63
2023/07/13 07:15:29;;;;;;;13.00;4.70;;;18.30;99.90;;;;;;5007939;28;20408;-63
2023/07/13 07:17:55;;;;;;;14.23;4.03;;;18.40;99.90;;;;;;5006768;28;20397;-63
2023/07/13 07:20:20;;;;;;;13.75;4.35;;;18.40;99.90;;;;;;5007496;28;20397;-66
2023/07/13 07:22:47;;;;;;;13.75;4.20;;;18.40;99.90;;;;;;5006554;28;20833;-62
2023/07/13 07:25:13;;;;;;;13.02;4.13;;;18.40;99.90;;;;;;5007153;28;20920;-62
2023/07/13 07:27:38;;;;;;;12.60;4.57;;;18.50;99.90;;;;;;5007581;28;20519;-66
2023/07/13 07:30:05;;;;;;;13.87;4.27;;;18.50;99.90;;;;;;5005998;28;20505;-62
2023/07/13 07:32:31;;;;;;;13.60;4.75;;;18.60;99.90;;;;;;5075796;28;20409;-67
2023/07/13 07:34:58;;;;;;;13.20;4.45;;;18.60;99.90;;;;;;4973022;28;20458;-68
2023/07/13 07:37:24;;;;;;;13.32;4.25;;;18.70;99.90;;;;;;4999976;28;20450;-63
2023/07/13 07:39:50;;;;;;;17.20;4.93;;;18.70;99.90;;;;;;4990210;28;20964;-63
2023/07/13 07:42:16;;;;;;;13.77;4.47;;;18.80;99.90;;;;;;5007263;28;20405;-63
2023/07/13 07:44:42;;;;;;;14.15;4.90;;;18.90;99.90;;;;;;5007195;28;20505;-63
2023/07/13 07:47:08;;;;;;;17.20;4.90;;;19.00;99.90;;;;;;4988800;28;20413;-62
2023/07/13 07:49:36;;;;;;;17.48;5.18;;;19.10;99.90;;;;;;5007380;28;20426;-65
2023/07/13 07:52:02;;;;;;;15.65;5.13;;;18.60;99.90;;;;;;5006513;28;20405;-66
2023/07/13 07:54:27;;;;;;;13.48;4.57;;;19.20;99.90;;;;;;4989393;28;20405;-65
2023/07/13 07:56:53;;;;;;;17.83;5.03;;;19.30;99.90;;;;;;5007275;28;20401;-63
2023/07/13 07:59:19;;;;;;;13.10;4.80;;;19.40;99.90;;;;;;5006782;28;20703;-62
2023/07/13 08:01:46;;;;;;;18.00;5.23;;;19.50;99.90;;;;;;5007333;28;20401;-63
2023/07/13 08:04:12;;;;;;;15.60;4.82;;;19.50;99.90;;;;;;4988242;28;20432;-63
2023/07/13 08:06:37;;;;;;;13.40;5.03;;;19.60;99.90;;;;;;5007354;28;20421;-62
2023/07/13 08:09:04;;;;;;;16.23;5.20;;;19.80;99.90;;;;;;5007529;28;20455;-63
2023/07/13 08:11:30;;;;;;;14.00;4.93;;;19.80;99.90;;;;;;4982459;28;20405;-65
2023/07/13 08:13:56;;;;;;;15.32;4.88;;;19.90;99.90;;;;;;4978135;28;20431;-63
2023/07/13 08:16:23;;;;;;;13.90;5.38;;;20.00;99.90;;;;;;4989960;28;20420;-63
2023/07/13 08:18:49;;;;;;;15.25;5.07;;;20.10;99.90;;;;;;4974715;28;20974;-64
2023/07/13 08:21:14;;;;;;;13.00;5.20;;;20.10;99.90;;;;;;5003630;28;20492;-65
2023/07/13 08:23:40;;;;;;;14.00;4.90;;;20.20;99.90;;;;;;5006832;28;20432;-63
2023/07/13 08:26:06;;;;;;;13.63;5.07;;;20.30;99.90;;;;;;5008964;28;20405;-63
2023/07/13 08:28:33;;;;;;;12.77;4.90;;;20.20;99.90;;;;;;4989621;28;20451;-62
2023/07/13 08:31:09;;;;;;;14.98;5.82;;;20.20;99.90;;;;;;5006076;28;20496;-65
2023/07/13 08:33:36;;;;;;;16.75;5.25;;;20.20;99.90;;;;;;5005218;28;20473;-63
2023/07/13 08:36:02;;;;;;;12.40;5.72;;;20.20;99.90;;;;;;5007622;28;20427;-63
2023/07/13 08:38:28;;;;;;;13.80;5.13;;;20.10;99.90;;;;;;5012890;28;20411;-63
2023/07/13 08:40:56;;;;;;;11.30;4.77;;;20.00;99.90;;;;;;4988228;28;20409;-63
2023/07/13 08:43:36;;;;;;;14.82;5.03;;;20.00;99.90;;;;;;4988772;28;20831;-63
2023/07/13 08:46:23;;;;;;;13.70;5.50;;;19.90;99.90;;;;;;4988619;28;20866;-63
2023/07/13 08:48:53;;;;;;;13.43;5.30;;;19.80;99.90;;;;;;5005267;28;20412;-66
2023/07/13 08:51:33;;;;;;;14.40;5.43;;;19.70;99.90;;;;;;5007374;28;20485;-66
2023/07/13 08:54:02;;;;;;;21.23;6.20;;;19.50;99.90;;;;;;4990362;28;20764;-63
2023/07/13 08:56:30;;;;;;;12.73;4.93;;;19.30;99.90;;;;;;5074221;28;20836;-64
2023/07/13 08:58:58;;;;;;;8.35;3.10;;;19.10;99.90;;;;;;5016431;28;20441;-64
2023/07/13 09:01:38;;;;;;;5.90;3.00;;;18.80;99.90;;;;;;5005608;28;20408;-64
2023/07/13 09:04:30;;;;;;;6.25;2.72;;;18.50;99.90;;;;;;5005878;28;20432;-66
2023/07/13 09:07:03;;;;;;;6.15;2.70;;;18.00;99.90;;;;;;5003759;28;20907;-66
2023/07/13 09:10:00;;;;;;;5.15;2.50;;;17.80;99.90;;;;;;5003320;28;20450;-63
2023/07/13 09:12:54;;;;;;;4.82;2.30;;;17.50;99.90;;;;;;4998202;28;20432;-66
2023/07/13 09:15:30;;;;;;;5.53;2.40;;;17.30;99.90;;;;;;5005262;28;20759;-63
2023/07/13 09:18:04;;;;;;;4.70;2.30;;;17.10;99.90;;;;;;5006451;28;20393;-64
2023/07/13 09:21:02;;;;;;;5.20;2.65;;;17.00;99.90;;;;;;5006278;28;20401;-65
2023/07/13 09:23:29;;;;;;;4.60;2.50;;;16.80;99.90;;;;;;4986375;28;20433;-67
2023/07/13 09:26:04;;;;;;;5.00;2.50;;;16.80;99.90;;;;;;5002993;28;20453;-63
2023/07/13 09:28:39;;;;;;;3.28;2.30;;;16.80;99.90;;;;;;5005936;28;20396;-67
2023/07/13 09:31:14;;;;;;;3.28;2.40;;;16.70;99.90;;;;;;4988231;28;20416;-63
2023/07/13 09:33:40;;;;;;;4.30;2.40;;;16.70;99.90;;;;;;4987760;28;20413;-63
2023/07/13 09:36:23;;;;;;;3.33;2.35;;;16.60;99.90;;;;;;5073464;28;20936;-63
2023/07/13 09:39:03;;;;;;;4.40;2.47;;;16.70;99.90;;;;;;5006157;28;20397;-64
2023/07/13 09:41:54;;;;;;;3.63;2.40;;;16.70;99.90;;;;;;4986409;28;20428;-64
2023/07/13 09:44:43;;;;;;;4.57;2.30;;;16.80;99.90;;;;;;5010172;28;20919;-63
2023/07/13 09:47:17;;;;;;;3.87;2.50;;;16.80;99.90;;;;;;5011353;28;20425;-67
2023/07/13 09:49:46;;;;;;;5.17;2.50;;;16.90;99.90;;;;;;4988087;28;20918;-67
2023/07/13 09:52:15;;;;;;;5.50;2.85;;;16.90;99.90;;;;;;5009146;28;20404;-64
2023/07/13 09:54:49;;;;;;;6.03;2.83;;;16.90;99.90;;;;;;5008663;28;20955;-67
2023/07/13 09:57:23;;;;;;;5.50;3.00;;;16.80;99.90;;;;;;4990311;28;20424;-64
2023/07/13 09:59:51;;;;;;;5.63;3.00;;;16.90;99.90;;;;;;5009125;28;20759;-63
2023/07/13 10:02:35;;;;;;;4.97;2.60;;;17.00;99.90;;;;;;5008112;28;20405;-63
2023/07/13 10:05:10;;;;;;;5.80;2.88;;;17.00;99.90;;;;;;5018401;22;20460;-75
2023/07/13 10:07:44;;;;;;;4.93;2.80;;;17.20;99.90;;;;;;4962109;28;20507;-75
2023/07/13 10:10:23;;;;;;;4.60;2.80;;;17.30;99.90;;;;;;4934485;28;20410;-76
2023/07/13 10:12:50;;;;;;;8.18;3.50;;;17.70;99.90;;;;;;4942349;28;20474;-77
2023/07/13 10:15:21;;;;;;;7.18;3.65;;;18.10;99.90;;;;;;4963720;28;20430;-77
2023/07/13 10:17:48;;;;;;;9.60;5.00;;;18.60;99.90;;;;;;4934761;28;20410;-77
2023/07/13 10:20:14;;;;;;;9.98;5.00;;;18.90;99.90;;;;;;4938789;28;20762;-77
2023/07/13 10:22:51;;;;;;;9.18;5.20;;;19.20;99.90;;;;;;4938887;28;20411;-78
2023/07/13 10:25:40;;;;;;;8.63;5.77;;;19.50;99.90;;;;;;4940313;28;20489;-77
2023/07/13 10:28:32;;;;;;;9.50;6.37;;;19.80;99.90;;;;;;4942786;28;20430;-78
2023/07/13 10:31:00;;;;;;;11.25;6.85;;;20.20;99.90;;;;;;4981164;28;20403;-78
2023/07/13 10:33:27;;;;;;;9.50;5.95;;;20.50;99.90;;;;;;4962554;28;20435;-78
2023/07/13 10:36:03;;;;;;;11.32;6.20;;;20.80;99.90;;;;;;4927875;28;20408;-78
2023/07/13 10:38:30;;;;;;;9.30;6.40;;;20.80;99.90;;;;;;4940912;28;20454;-78
2023/07/13 10:40:58;;;;;;;8.73;6.60;;;20.70;99.90;;;;;;4939381;28;20784;-78
2023/07/13 10:43:33;;;;;;;11.55;7.60;;;20.50;99.90;;;;;;4935896;28;20426;-78
2023/07/13 10:46:07;;;;;;;11.70;7.20;;;20.30;99.90;;;;;;4935394;28;20430;-78
2023/07/13 10:48:45;;;;;;;10.15;6.78;;;20.10;99.90;;;;;;4971740;28;20405;-78
2023/07/13 10:51:13;;;;;;;10.73;7.50;;;20.20;99.90;;;;;;4945740;28;20444;-75
2023/07/13 10:53:43;;;;;;;15.60;7.70;;;19.60;99.90;;;;;;4955070;28;20895;-76
2023/07/13 10:56:29;;;;;;;9.77;4.35;;;19.40;99.90;;;;;;4941537;28;20810;-76
2023/07/13 10:59:11;;;;;;;6.65;3.20;;;19.00;99.90;;;;;;4927065;28;20414;-76
2023/07/13 11:02:05;;;;;;;4.70;2.50;;;19.10;99.90;;;;;;4975028;28;20544;-76
2023/07/13 11:04:45;;;;;;;5.13;2.47;;;18.20;99.90;;;;;;4972633;28;20542;-76
2023/07/13 11:07:29;;;;;;;4.35;2.45;;;18.00;99.90;;;;;;4933756;28;20422;-76
2023/07/13 11:09:58;;;;;;;5.78;2.70;;;18.00;99.90;;;;;;4950189;28;20401;-76
2023/07/13 11:12:25;;;;;;;4.93;2.70;;;18.10;99.90;;;;;;4975215;28;20422;-77
2023/07/13 11:15:02;;;;;;;5.93;2.60;;;18.40;99.90;;;;;;4937251;28;20446;-77
2023/07/13 11:17:27;;;;;;;5.03;2.70;;;18.50;99.90;;;;;;4926447;28;20429;-75
2023/07/13 11:20:04;;;;;;;6.10;3.13;;;19.20;99.90;;;;;;4976313;28;20441;-76
2023/07/13 11:22:43;;;;;;;6.45;3.83;;;18.80;99.90;;;;;;4948272;28;20396;-76
2023/07/13 11:25:27;;;;;;;5.82;3.80;;;19.20;99.90;;;;;;4933946;28;21071;-76
2023/07/13 11:28:05;;;;;;;6.28;3.90;;;19.50;99.90;;;;;;4933180;28;20422;-77
2023/07/13 11:30:37;;;;;;;7.20;4.28;;;20.10;99.90;;;;;;4947072;28;20412;-78
2023/07/13 11:33:27;;;;;;;6.40;3.97;;;20.10;99.90;;;;;;4953332;28;20457;-78
2023/07/13 11:35:56;;;;;;;7.37;4.53;;;20.40;99.90;;;;;;4969284;28;20558;-78
2023/07/13 11:38:39;;;;;;;7.15;4.50;;;20.60;99.90;;;;;;4935393;28;21003;-78
2023/07/13 11:41:15;;;;;;;7.07;4.57;;;20.90;99.90;;;;;;5009480;28;20410;-78
2023/07/13 11:43:42;;;;;;;7.95;4.45;;;21.00;99.90;;;;;;4936553;28;20902;-78
2023/07/13 11:46:16;;;;;;;11.00;5.68;;;21.10;99.90;;;;;;4940135;28;20424;-78
2023/07/13 11:48:44;;;;;;;8.98;4.93;;;21.30;99.90;;;;;;4931495;28;20447;-78
2023/07/13 11:51:32;;;;;;;7.28;4.28;;;21.50;99.90;;;;;;4955325;28;20431;-78
2023/07/13 11:54:04;;;;;;;7.68;4.03;;;21.70;99.90;;;;;;4955422;28;20440;-78
2023/07/13 11:56:33;;;;;;;6.50;3.90;;;21.90;99.90;;;;;;4937321;28;20748;-78
2023/07/13 11:59:08;;;;;;;8.85;4.43;;;22.10;99.90;;;;;;4938716;28;20412;-78
2023/07/13 12:01:44;;;;;;;8.43;5.20;;;22.20;99.90;;;;;;4933446;28;20442;-78
2023/07/13 12:04:34;;;;;;;8.80;4.68;;;22.30;99.90;;;;;;4957345;28;20461;-79
2023/07/13 12:07:16;;;;;;;9.25;4.55;;;22.30;99.90;;;;;;4951701;28;20943;-79
2023/07/13 12:09:43;;;;;;;8.52;4.50;;;22.30;99.90;;;;;;4937443;28;20402;-78
2023/07/13 12:12:21;;;;;;;6.07;2.77;;;22.20;99.90;;;;;;4948319;28;20412;-79
2023/07/13 12:14:52;;;;;;;5.30;2.67;;;22.10;99.90;;;;;;4942586;28;20419;-79
2023/07/13 12:17:22;;;;;;;6.55;2.40;;;22.10;99.90;;;;;;4954002;28;20486;-79
2023/07/13 12:19:50;;;;;;;5.90;2.40;;;22.30;99.90;;;;;;4921483;29;20421;-79
2023/07/13 12:22:19;;;;;;;6.53;2.47;;;22.40;99.90;;;;;;4941402;28;20432;-78
2023/07/13 12:24:47;;;;;;;10.20;2.78;;;22.20;99.90;;;;;;4954804;28;20421;-79
2023/07/13 12:27:25;;;;;;;6.40;2.60;;;22.20;99.90;;;;;;4989192;28;20406;-79
2023/07/13 12:29:59;;;;;;;5.53;2.43;;;22.10;99.90;;;;;;4941048;28;20506;-78
2023/07/13 12:32:27;;;;;;;6.68;2.70;;;22.20;99.90;;;;;;4931417;28;20412;-78
2023/07/13 12:35:16;;;;;;;6.22;2.63;;;22.40;99.90;;;;;;4946864;28;20418;-78
2023/07/13 12:37:52;;;;;;;7.20;2.60;;;22.60;99.90;;;;;;4944731;28;20421;-78
2023/07/13 12:40:23;;;;;;;5.17;2.23;;;22.80;99.80;;;;;;4927450;28;20422;-78
2023/07/13 12:42:51;;;;;;;6.22;2.35;;;22.90;99.00;;;;;;4943412;28;20415;-78
2023/07/13 12:45:28;;;;;;;5.87;2.10;;;23.00;99.10;;;;;;4940596;28;21040;-81
2023/07/13 12:47:59;;;;;;;4.80;2.40;;;23.20;98.40;;;;;;4952730;28;20414;-80
2023/07/13 12:50:33;;;;;;;6.60;2.50;;;23.30;97.00;;;;;;4932606;28;20419;-80
2023/07/13 12:53:06;;;;;;;5.13;2.15;;;23.30;97.40;;;;;;4926483;28;20906;-80